Frontier, Michigan
Current Conditions -  °F | °C
As of 2:15 AM on Saturday 25 Oct 2014 (Local Time) from KJYM Reporting Station
Haze Haze  
Wind Chill: 48°   Ceiling: Unl
Heat Index: 48°   Visibility: 4mi
Dew Point: 48°   Wind: 3mph
Humidity: 99%   Direction: 240°WSW
Pressure: 29.94"   Gusts: NA
Location:  41.78°N, 84.6°W
Report Text: KJYM 250615Z AUTO 24003KT 4SM BR CLR 09/09 A2994 RMK AO2 T00910090
Loading
Personal Weather Stations






























Interactive Weather Map
Tropical Storm Tracking
New forecast layout! Learn more

10-Day Weather Forecast

Advertisements
Track Severe Weather on mobile